sensor_id;sensor_type;location;lat;lon;timestamp;pressure;altitude;pressure_sealevel;temperature
81657;BMP280;71067;51.482;-0.580;2024-02-26T00:00:00;99461.38;;;6.52
81657;BMP280;71067;51.482;-0.580;2024-02-26T00:02:25;99494.44;;;6.71
81657;BMP280;71067;51.482;-0.580;2024-02-26T00:04:51;99498.94;;;6.69
81657;BMP280;71067;51.482;-0.580;2024-02-26T00:07:16;99463.94;;;6.44
81657;BMP280;71067;51.482;-0.580;2024-02-26T00:09:41;99440.00;;;6.28
81657;BMP280;71067;51.482;-0.580;2024-02-26T00:12:07;99474.38;;;6.51
81657;BMP280;71067;51.482;-0.580;2024-02-26T00:14:33;99432.81;;;6.23
81657;BMP280;71067;51.482;-0.580;2024-02-26T00:17:02;99506.97;;;6.66
81657;BMP280;71067;51.482;-0.580;2024-02-26T00:19:27;99437.59;;;6.26
81657;BMP280;71067;51.482;-0.580;2024-02-26T00:21:53;99524.66;;;6.69
81657;BMP280;71067;51.482;-0.580;2024-02-26T00:24:21;99451.75;;;6.22
81657;BMP280;71067;51.482;-0.580;2024-02-26T00:26:47;99472.81;;;6.26
81657;BMP280;71067;51.482;-0.580;2024-02-26T00:29:18;99493.00;;;6.37
81657;BMP280;71067;51.482;-0.580;2024-02-26T00:31:43;99541.19;;;6.67
81657;BMP280;71067;51.482;-0.580;2024-02-26T00:34:09;99490.75;;;6.42
81657;BMP280;71067;51.482;-0.580;2024-02-26T00:36:35;99478.88;;;6.25
81657;BMP280;71067;51.482;-0.580;2024-02-26T00:39:00;99533.81;;;6.64
81657;BMP280;71067;51.482;-0.580;2024-02-26T00:41:26;99529.16;;;6.51
81657;BMP280;71067;51.482;-0.580;2024-02-26T00:43:51;99485.16;;;6.22
81657;BMP280;71067;51.482;-0.580;2024-02-26T00:46:17;99544.38;;;6.53
81657;BMP280;71067;51.482;-0.580;2024-02-26T00:48:42;99553.72;;;6.54
81657;BMP280;71067;51.482;-0.580;2024-02-26T00:51:08;99513.72;;;6.27
81657;BMP280;71067;51.482;-0.580;2024-02-26T00:53:34;99503.78;;;6.24
81657;BMP280;71067;51.482;-0.580;2024-02-26T00:55:59;99556.81;;;6.49
81657;BMP280;71067;51.482;-0.580;2024-02-26T00:58:25;99554.69;;;6.45
81657;BMP280;71067;51.482;-0.580;2024-02-26T01:00:51;99587.47;;;6.67
81657;BMP280;71067;51.482;-0.580;2024-02-26T01:03:19;99533.66;;;6.25
81657;BMP280;71067;51.482;-0.580;2024-02-26T01:05:45;99596.13;;;6.66
81657;BMP280;71067;51.482;-0.580;2024-02-26T01:08:11;99532.19;;;6.23
81657;BMP280;71067;51.482;-0.580;2024-02-26T01:10:36;99536.81;;;6.27
81657;BMP280;71067;51.482;-0.580;2024-02-26T01:13:02;99615.75;;;6.67
81657;BMP280;71067;51.482;-0.580;2024-02-26T01:15:30;99543.72;;;6.27
81657;BMP280;71067;51.482;-0.580;2024-02-26T01:17:56;99547.91;;;6.28
81657;BMP280;71067;51.482;-0.580;2024-02-26T01:20:21;99561.25;;;6.23
81657;BMP280;71067;51.482;-0.580;2024-02-26T01:22:48;99591.16;;;6.48
81657;BMP280;71067;51.482;-0.580;2024-02-26T01:25:14;99587.78;;;6.40
81657;BMP280;71067;51.482;-0.580;2024-02-26T01:27:41;99594.34;;;6.42
81657;BMP280;71067;51.482;-0.580;2024-02-26T01:30:08;99601.28;;;6.50
81657;BMP280;71067;51.482;-0.580;2024-02-26T01:32:33;99625.53;;;6.55
81657;BMP280;71067;51.482;-0.580;2024-02-26T01:35:01;99607.19;;;6.42
81657;BMP280;71067;51.482;-0.580;2024-02-26T01:37:28;99658.16;;;6.71
81657;BMP280;71067;51.482;-0.580;2024-02-26T01:39:55;99617.66;;;6.49
81657;BMP280;71067;51.482;-0.580;2024-02-26T01:42:23;99627.94;;;6.49
81657;BMP280;71067;51.482;-0.580;2024-02-26T01:44:49;99596.13;;;6.26
81657;BMP280;71067;51.482;-0.580;2024-02-26T01:47:17;99596.88;;;6.26
81657;BMP280;71067;51.482;-0.580;2024-02-26T01:49:43;99642.88;;;6.45
81657;BMP280;71067;51.482;-0.580;2024-02-26T01:52:09;99698.19;;;6.73
81657;BMP280;71067;51.482;-0.580;2024-02-26T01:54:37;99669.72;;;6.59
81657;BMP280;71067;51.482;-0.580;2024-02-26T01:57:05;99683.53;;;6.58
81657;BMP280;71067;51.482;-0.580;2024-02-26T01:59:31;99625.34;;;6.33
81657;BMP280;71067;51.482;-0.580;2024-02-26T02:01:58;99667.91;;;6.43
81657;BMP280;71067;51.482;-0.580;2024-02-26T02:04:26;99685.75;;;6.53
81657;BMP280;71067;51.482;-0.580;2024-02-26T02:07:02;99655.88;;;6.36
81657;BMP280;71067;51.482;-0.580;2024-02-26T02:09:28;99713.78;;;6.64
81657;BMP280;71067;51.482;-0.580;2024-02-26T02:11:54;99688.00;;;6.48
81657;BMP280;71067;51.482;-0.580;2024-02-26T02:14:20;99711.50;;;6.61
81657;BMP280;71067;51.482;-0.580;2024-02-26T02:16:46;99721.97;;;6.67
81657;BMP280;71067;51.482;-0.580;2024-02-26T02:19:12;99705.72;;;6.59
81657;BMP280;71067;51.482;-0.580;2024-02-26T02:21:39;99708.56;;;6.48
81657;BMP280;71067;51.482;-0.580;2024-02-26T02:24:05;99724.00;;;6.56
81657;BMP280;71067;51.482;-0.580;2024-02-26T02:26:30;99730.09;;;6.55
81657;BMP280;71067;51.482;-0.580;2024-02-26T02:28:57;99718.84;;;6.48
81657;BMP280;71067;51.482;-0.580;2024-02-26T02:31:23;99747.13;;;6.56
81657;BMP280;71067;51.482;-0.580;2024-02-26T02:33:48;99751.84;;;6.68
81657;BMP280;71067;51.482;-0.580;2024-02-26T02:36:14;99758.09;;;6.66
81657;BMP280;71067;51.482;-0.580;2024-02-26T02:38:48;99783.88;;;6.82
81657;BMP280;71067;51.482;-0.580;2024-02-26T02:41:18;99729.59;;;6.43
81657;BMP280;71067;51.482;-0.580;2024-02-26T02:43:44;99788.06;;;6.83
81657;BMP280;71067;51.482;-0.580;2024-02-26T02:46:10;99778.66;;;6.66
81657;BMP280;71067;51.482;-0.580;2024-02-26T02:48:38;99779.28;;;6.60
81657;BMP280;71067;51.482;-0.580;2024-02-26T02:51:04;99805.72;;;6.86
81657;BMP280;71067;51.482;-0.580;2024-02-26T02:53:30;99754.31;;;6.44
81657;BMP280;71067;51.482;-0.580;2024-02-26T02:55:55;99797.47;;;6.66
81657;BMP280;71067;51.482;-0.580;2024-02-26T02:58:20;99754.81;;;6.40
81657;BMP280;71067;51.482;-0.580;2024-02-26T03:00:46;99814.06;;;6.72
81657;BMP280;71067;51.482;-0.580;2024-02-26T03:03:11;99833.66;;;6.81
81657;BMP280;71067;51.482;-0.580;2024-02-26T03:05:37;99812.56;;;6.61
81657;BMP280;71067;51.482;-0.580;2024-02-26T03:08:02;99815.13;;;6.61
81657;BMP280;71067;51.482;-0.580;2024-02-26T03:10:28;99854.25;;;6.81
81657;BMP280;71067;51.482;-0.580;2024-02-26T03:12:56;99813.66;;;6.51
81657;BMP280;71067;51.482;-0.580;2024-02-26T03:15:22;99874.38;;;6.77
81657;BMP280;71067;51.482;-0.580;2024-02-26T03:17:50;99831.63;;;6.51
81657;BMP280;71067;51.482;-0.580;2024-02-26T03:20:15;99876.75;;;6.79
81657;BMP280;71067;51.482;-0.580;2024-02-26T03:22:44;99884.94;;;6.74
81657;BMP280;71067;51.482;-0.580;2024-02-26T03:25:09;99825.09;;;6.31
81657;BMP280;71067;51.482;-0.580;2024-02-26T03:27:37;99841.16;;;6.33
81657;BMP280;71067;51.482;-0.580;2024-02-26T03:30:03;99827.25;;;6.18
81657;BMP280;71067;51.482;-0.580;2024-02-26T03:32:29;99840.66;;;6.29
81657;BMP280;71067;51.482;-0.580;2024-02-26T03:34:54;99852.38;;;6.32
81657;BMP280;71067;51.482;-0.580;2024-02-26T03:37:21;99857.81;;;6.29
81657;BMP280;71067;51.482;-0.580;2024-02-26T03:39:46;99863.31;;;6.26
81657;BMP280;71067;51.482;-0.580;2024-02-26T03:42:12;99896.63;;;6.43
81657;BMP280;71067;51.482;-0.580;2024-02-26T03:44:37;99927.72;;;6.58
81657;BMP280;71067;51.482;-0.580;2024-02-26T03:47:03;99923.22;;;6.52
81657;BMP280;71067;51.482;-0.580;2024-02-26T03:49:28;99879.47;;;6.26
81657;BMP280;71067;51.482;-0.580;2024-02-26T03:51:54;99966.00;;;6.61
81657;BMP280;71067;51.482;-0.580;2024-02-26T03:54:19;99954.63;;;6.63
81657;BMP280;71067;51.482;-0.580;2024-02-26T03:56:45;99902.78;;;6.25
81657;BMP280;71067;51.482;-0.580;2024-02-26T03:59:10;99975.34;;;6.62
81657;BMP280;71067;51.482;-0.580;2024-02-26T04:01:35;99974.38;;;6.63
81657;BMP280;71067;51.482;-0.580;2024-02-26T04:04:01;99973.47;;;6.46
81657;BMP280;71067;51.482;-0.580;2024-02-26T04:06:26;99912.81;;;6.18
81657;BMP280;71067;51.482;-0.580;2024-02-26T04:08:52;99939.38;;;6.27
81657;BMP280;71067;51.482;-0.580;2024-02-26T04:11:18;100007.00;;;6.62
81657;BMP280;71067;51.482;-0.580;2024-02-26T04:13:44;99950.19;;;6.30
81657;BMP280;71067;51.482;-0.580;2024-02-26T04:16:15;100016.75;;;6.59
81657;BMP280;71067;51.482;-0.580;2024-02-26T04:18:41;100023.66;;;6.58
81657;BMP280;71067;51.482;-0.580;2024-02-26T04:21:07;100027.72;;;6.61
81657;BMP280;71067;51.482;-0.580;2024-02-26T04:23:32;100026.38;;;6.57
81657;BMP280;71067;51.482;-0.580;2024-02-26T04:25:58;100018.53;;;6.58
81657;BMP280;71067;51.482;-0.580;2024-02-26T04:28:23;99996.44;;;6.30
81657;BMP280;71067;51.482;-0.580;2024-02-26T04:30:51;100019.94;;;6.35
81657;BMP280;71067;51.482;-0.580;2024-02-26T04:33:17;100018.38;;;6.42
81657;BMP280;71067;51.482;-0.580;2024-02-26T04:35:42;100038.28;;;6.40
81657;BMP280;71067;51.482;-0.580;2024-02-26T04:38:07;100011.78;;;6.22
81657;BMP280;71067;51.482;-0.580;2024-02-26T04:40:33;100044.22;;;6.41
81657;BMP280;71067;51.482;-0.580;2024-02-26T04:42:58;100037.41;;;6.32
81657;BMP280;71067;51.482;-0.580;2024-02-26T04:45:24;100025.31;;;6.24
81657;BMP280;71067;51.482;-0.580;2024-02-26T04:47:49;100070.31;;;6.46
81657;BMP280;71067;51.482;-0.580;2024-02-26T04:50:15;100092.53;;;6.55
81657;BMP280;71067;51.482;-0.580;2024-02-26T04:52:40;100063.38;;;6.29
81657;BMP280;71067;51.482;-0.580;2024-02-26T04:55:06;100104.00;;;6.43
81657;BMP280;71067;51.482;-0.580;2024-02-26T04:57:32;100121.63;;;6.55
81657;BMP280;71067;51.482;-0.580;2024-02-26T04:59:57;100102.38;;;6.42
81657;BMP280;71067;51.482;-0.580;2024-02-26T05:02:22;100091.75;;;6.37
81657;BMP280;71067;51.482;-0.580;2024-02-26T05:04:51;100153.47;;;6.54
81657;BMP280;71067;51.482;-0.580;2024-02-26T05:07:16;100119.88;;;6.38
81657;BMP280;71067;51.482;-0.580;2024-02-26T05:09:44;100107.06;;;6.29
81657;BMP280;71067;51.482;-0.580;2024-02-26T05:12:10;100146.53;;;6.55
81657;BMP280;71067;51.482;-0.580;2024-02-26T05:14:35;100107.06;;;6.29
81657;BMP280;71067;51.482;-0.580;2024-02-26T05:17:01;100082.88;;;6.04
81657;BMP280;71067;51.482;-0.580;2024-02-26T05:19:26;100090.97;;;6.09
81657;BMP280;71067;51.482;-0.580;2024-02-26T05:21:52;100119.72;;;6.22
81657;BMP280;71067;51.482;-0.580;2024-02-26T05:24:17;100182.84;;;6.52
81657;BMP280;71067;51.482;-0.580;2024-02-26T05:26:45;100101.38;;;6.07
81657;BMP280;71067;51.482;-0.580;2024-02-26T05:29:11;100156.34;;;6.42
81657;BMP280;71067;51.482;-0.580;2024-02-26T05:31:36;100166.00;;;6.40
81657;BMP280;71067;51.482;-0.580;2024-02-26T05:34:02;100176.91;;;6.42
81657;BMP280;71067;51.482;-0.580;2024-02-26T05:36:27;100167.50;;;6.33
81657;BMP280;71067;51.482;-0.580;2024-02-26T05:38:58;100177.16;;;6.21
81657;BMP280;71067;51.482;-0.580;2024-02-26T05:41:23;100193.50;;;6.30
81657;BMP280;71067;51.482;-0.580;2024-02-26T05:43:50;100149.94;;;6.01
81657;BMP280;71067;51.482;-0.580;2024-02-26T05:46:22;100220.34;;;6.45
81657;BMP280;71067;51.482;-0.580;2024-02-26T05:48:48;100223.56;;;6.47
81657;BMP280;71067;51.482;-0.580;2024-02-26T05:51:14;100208.81;;;6.22
81657;BMP280;71067;51.482;-0.580;2024-02-26T05:53:43;100225.03;;;6.22
81657;BMP280;71067;51.482;-0.580;2024-02-26T05:56:09;100198.41;;;6.13
81657;BMP280;71067;51.482;-0.580;2024-02-26T05:58:34;100234.06;;;6.36
81657;BMP280;71067;51.482;-0.580;2024-02-26T06:01:00;100243.59;;;6.26
81657;BMP280;71067;51.482;-0.580;2024-02-26T06:03:26;100202.56;;;5.97
81657;BMP280;71067;51.482;-0.580;2024-02-26T06:05:51;100257.38;;;6.25
81657;BMP280;71067;51.482;-0.580;2024-02-26T06:08:17;100214.16;;;6.01
81657;BMP280;71067;51.482;-0.580;2024-02-26T06:10:42;100230.06;;;6.14
81657;BMP280;71067;51.482;-0.580;2024-02-26T06:13:08;100234.56;;;6.12
81657;BMP280;71067;51.482;-0.580;2024-02-26T06:15:33;100238.34;;;6.08
81657;BMP280;71067;51.482;-0.580;2024-02-26T06:17:59;100267.41;;;6.08
81657;BMP280;71067;51.482;-0.580;2024-02-26T06:20:24;100289.00;;;6.25
81657;BMP280;71067;51.482;-0.580;2024-02-26T06:22:52;100240.66;;;5.92
81657;BMP280;71067;51.482;-0.580;2024-02-26T06:25:18;100248.91;;;5.95
81657;BMP280;71067;51.482;-0.580;2024-02-26T06:27:43;100269.34;;;5.97
81657;BMP280;71067;51.482;-0.580;2024-02-26T06:30:09;100338.72;;;6.34
81657;BMP280;71067;51.482;-0.580;2024-02-26T06:32:36;100324.69;;;6.28
81657;BMP280;71067;51.482;-0.580;2024-02-26T06:35:02;100309.44;;;6.17
81657;BMP280;71067;51.482;-0.580;2024-02-26T06:37:32;100340.91;;;6.29
81657;BMP280;71067;51.482;-0.580;2024-02-26T06:39:57;100348.94;;;6.26
81657;BMP280;71067;51.482;-0.580;2024-02-26T06:42:26;100332.56;;;6.17
81657;BMP280;71067;51.482;-0.580;2024-02-26T06:44:51;100322.56;;;6.14
81657;BMP280;71067;51.482;-0.580;2024-02-26T06:47:17;100291.75;;;5.85
81657;BMP280;71067;51.482;-0.580;2024-02-26T06:49:44;100313.38;;;5.92
81657;BMP280;71067;51.482;-0.580;2024-02-26T06:52:10;100318.38;;;5.84
81657;BMP280;71067;51.482;-0.580;2024-02-26T06:54:35;100348.66;;;6.00
81657;BMP280;71067;51.482;-0.580;2024-02-26T06:57:01;100340.94;;;6.00
81657;BMP280;71067;51.482;-0.580;2024-02-26T06:59:29;100354.91;;;6.07
81657;BMP280;71067;51.482;-0.580;2024-02-26T07:01:55;100344.09;;;5.94
81657;BMP280;71067;51.482;-0.580;2024-02-26T07:04:21;100335.41;;;5.85
81657;BMP280;71067;51.482;-0.580;2024-02-26T07:06:49;100387.31;;;6.08
81657;BMP280;71067;51.482;-0.580;2024-02-26T07:09:20;100356.53;;;5.89
81657;BMP280;71067;51.482;-0.580;2024-02-26T07:11:45;100394.34;;;6.15
81657;BMP280;71067;51.482;-0.580;2024-02-26T07:14:12;100414.34;;;6.02
81657;BMP280;71067;51.482;-0.580;2024-02-26T07:16:37;100380.97;;;5.93
81657;BMP280;71067;51.482;-0.580;2024-02-26T07:19:28;100457.25;;;6.31
81657;BMP280;71067;51.482;-0.580;2024-02-26T07:22:01;100414.34;;;6.02
81657;BMP280;71067;51.482;-0.580;2024-02-26T07:24:27;100428.03;;;6.12
81657;BMP280;71067;51.482;-0.580;2024-02-26T07:26:53;100421.16;;;5.94
81657;BMP280;71067;51.482;-0.580;2024-02-26T07:29:22;100402.75;;;5.89
81657;BMP280;71067;51.482;-0.580;2024-02-26T07:31:47;100452.53;;;6.07
81657;BMP280;71067;51.482;-0.580;2024-02-26T07:34:13;100487.28;;;6.30
81657;BMP280;71067;51.482;-0.580;2024-02-26T07:36:38;100441.38;;;5.87
81657;BMP280;71067;51.482;-0.580;2024-02-26T07:39:04;100466.16;;;6.07
81657;BMP280;71067;51.482;-0.580;2024-02-26T07:41:30;100518.63;;;6.34
81657;BMP280;71067;51.482;-0.580;2024-02-26T07:43:56;100502.13;;;6.27
81657;BMP280;71067;51.482;-0.580;2024-02-26T07:46:21;100499.19;;;6.12
81657;BMP280;71067;51.482;-0.580;2024-02-26T07:48:47;100526.91;;;6.28
81657;BMP280;71067;51.482;-0.580;2024-02-26T07:51:15;100507.28;;;6.27
81657;BMP280;71067;51.482;-0.580;2024-02-26T07:53:53;100471.69;;;5.93
81657;BMP280;71067;51.482;-0.580;2024-02-26T07:56:19;100535.03;;;6.33
81657;BMP280;71067;51.482;-0.580;2024-02-26T07:58:44;100475.34;;;5.91
81657;BMP280;71067;51.482;-0.580;2024-02-26T08:01:13;100530.94;;;6.21
81657;BMP280;71067;51.482;-0.580;2024-02-26T08:03:39;100490.75;;;6.00
81657;BMP280;71067;51.482;-0.580;2024-02-26T08:06:04;100567.94;;;6.39
81657;BMP280;71067;51.482;-0.580;2024-02-26T08:08:30;100540.03;;;6.25
81657;BMP280;71067;51.482;-0.580;2024-02-26T08:10:56;100543.78;;;6.21
81657;BMP280;71067;51.482;-0.580;2024-02-26T08:13:21;100557.09;;;6.35
81657;BMP280;71067;51.482;-0.580;2024-02-26T08:15:47;100525.94;;;6.09
81657;BMP280;71067;51.482;-0.580;2024-02-26T08:18:12;100526.88;;;6.08
81657;BMP280;71067;51.482;-0.580;2024-02-26T08:20:43;100514.84;;;6.09
81657;BMP280;71067;51.482;-0.580;2024-02-26T08:23:09;100511.19;;;6.02
81657;BMP280;71067;51.482;-0.580;2024-02-26T08:25:34;100546.75;;;6.16
81657;BMP280;71067;51.482;-0.580;2024-02-26T08:28:00;100546.25;;;6.22
81657;BMP280;71067;51.482;-0.580;2024-02-26T08:30:26;100589.31;;;6.49
81657;BMP280;71067;51.482;-0.580;2024-02-26T08:32:52;100567.47;;;6.34
81657;BMP280;71067;51.482;-0.580;2024-02-26T08:35:20;100616.91;;;6.56
81657;BMP280;71067;51.482;-0.580;2024-02-26T08:37:47;100540.94;;;6.14
81657;BMP280;71067;51.482;-0.580;2024-02-26T08:40:18;100545.44;;;6.12
81657;BMP280;71067;51.482;-0.580;2024-02-26T08:42:45;100565.31;;;6.20
81657;BMP280;71067;51.482;-0.580;2024-02-26T08:45:11;100557.59;;;6.20
81657;BMP280;71067;51.482;-0.580;2024-02-26T08:47:36;100631.50;;;6.56
81657;BMP280;71067;51.482;-0.580;2024-02-26T08:50:03;100572.34;;;6.27
81657;BMP280;71067;51.482;-0.580;2024-02-26T08:56:22;100649.66;;;6.73
81657;BMP280;71067;51.482;-0.580;2024-02-26T08:59:09;100664.72;;;6.78
81657;BMP280;71067;51.482;-0.580;2024-02-26T09:01:54;100655.09;;;6.80
81657;BMP280;71067;51.482;-0.580;2024-02-26T09:04:19;100655.50;;;6.85
81657;BMP280;71067;51.482;-0.580;2024-02-26T09:06:45;100659.16;;;6.82
81657;BMP280;71067;51.482;-0.580;2024-02-26T09:09:10;100595.63;;;6.45
81657;BMP280;71067;51.482;-0.580;2024-02-26T09:11:36;100641.97;;;6.73
81657;BMP280;71067;51.482;-0.580;2024-02-26T09:14:02;100646.72;;;6.78
81657;BMP280;71067;51.482;-0.580;2024-02-26T09:16:29;100619.09;;;6.51
81657;BMP280;71067;51.482;-0.580;2024-02-26T09:18:55;100679.63;;;6.94
81657;BMP280;71067;51.482;-0.580;2024-02-26T09:21:45;100708.44;;;6.97
81657;BMP280;71067;51.482;-0.580;2024-02-26T09:24:14;100668.38;;;6.85
81657;BMP280;71067;51.482;-0.580;2024-02-26T09:26:49;100652.81;;;6.77
81657;BMP280;71067;51.482;-0.580;2024-02-26T09:29:15;100700.88;;;7.05
81657;BMP280;71067;51.482;-0.580;2024-02-26T09:31:40;100686.81;;;6.90
81657;BMP280;71067;51.482;-0.580;2024-02-26T09:34:09;100700.47;;;7.00
81657;BMP280;71067;51.482;-0.580;2024-02-26T09:36:35;100694.09;;;7.04
81657;BMP280;71067;51.482;-0.580;2024-02-26T09:39:00;100684.06;;;6.91
81657;BMP280;71067;51.482;-0.580;2024-02-26T09:41:30;100675.03;;;6.78
81657;BMP280;71067;51.482;-0.580;2024-02-26T09:43:57;100723.91;;;7.07
81657;BMP280;71067;51.482;-0.580;2024-02-26T09:46:23;100734.38;;;7.15
81657;BMP280;71067;51.482;-0.580;2024-02-26T09:48:51;100673.50;;;6.85
81657;BMP280;71067;51.482;-0.580;2024-02-26T09:51:17;100695.34;;;6.91
81657;BMP280;71067;51.482;-0.580;2024-02-26T09:53:44;100730.41;;;7.20
81657;BMP280;71067;51.482;-0.580;2024-02-26T09:59:41;100757.09;;;7.29
81657;BMP280;71067;51.482;-0.580;2024-02-26T10:02:12;100768.75;;;7.42
81657;BMP280;71067;51.482;-0.580;2024-02-26T10:04:42;100755.47;;;7.28
81657;BMP280;71067;51.482;-0.580;2024-02-26T10:07:15;100776.50;;;7.33
81657;BMP280;71067;51.482;-0.580;2024-02-26T10:09:41;100759.69;;;7.19
81657;BMP280;71067;51.482;-0.580;2024-02-26T10:12:09;100743.78;;;7.05
81657;BMP280;71067;51.482;-0.580;2024-02-26T10:14:35;100805.75;;;7.41
81657;BMP280;71067;51.482;-0.580;2024-02-26T10:17:02;100722.97;;;6.98
81657;BMP280;71067;51.482;-0.580;2024-02-26T10:19:30;100787.16;;;7.28
81657;BMP280;71067;51.482;-0.580;2024-02-26T10:22:22;100798.84;;;7.42
81657;BMP280;71067;51.482;-0.580;2024-02-26T10:24:50;100791.25;;;7.21
81657;BMP280;71067;51.482;-0.580;2024-02-26T10:27:16;100817.69;;;7.42
81657;BMP280;71067;51.482;-0.580;2024-02-26T10:29:44;100792.47;;;7.17
81657;BMP280;71067;51.482;-0.580;2024-02-26T10:32:15;100814.84;;;7.26
81657;BMP280;71067;51.482;-0.580;2024-02-26T10:34:57;100811.59;;;7.24
81657;BMP280;71067;51.482;-0.580;2024-02-26T10:37:23;100809.00;;;7.15
81657;BMP280;71067;51.482;-0.580;2024-02-26T10:39:56;100844.22;;;7.33
81657;BMP280;71067;51.482;-0.580;2024-02-26T10:42:28;100858.88;;;7.42
81657;BMP280;71067;51.482;-0.580;2024-02-26T10:44:53;100859.13;;;7.30
81657;BMP280;71067;51.482;-0.580;2024-02-26T10:47:35;100829.81;;;7.02
81657;BMP280;71067;51.482;-0.580;2024-02-26T10:50:05;100853.28;;;7.18
81657;BMP280;71067;51.482;-0.580;2024-02-26T10:52:38;100838.91;;;7.06
81657;BMP280;71067;51.482;-0.580;2024-02-26T10:55:05;100861.81;;;7.09
81657;BMP280;71067;51.482;-0.580;2024-02-26T10:57:35;100835.75;;;6.93
81657;BMP280;71067;51.482;-0.580;2024-02-26T11:00:14;100850.56;;;7.10
81657;BMP280;71067;51.482;-0.580;2024-02-26T11:02:40;100834.03;;;7.03
81657;BMP280;71067;51.482;-0.580;2024-02-26T11:05:07;100879.19;;;7.26
81657;BMP280;71067;51.482;-0.580;2024-02-26T11:07:36;100863.22;;;7.32
81657;BMP280;71067;51.482;-0.580;2024-02-26T11:10:03;100891.44;;;7.43
81657;BMP280;71067;51.482;-0.580;2024-02-26T11:12:31;100881.38;;;7.40
81657;BMP280;71067;51.482;-0.580;2024-02-26T11:14:57;100938.94;;;7.70
81657;BMP280;71067;51.482;-0.580;2024-02-26T11:17:27;100932.13;;;7.68
81657;BMP280;71067;51.482;-0.580;2024-02-26T11:19:58;100919.50;;;7.75
81657;BMP280;71067;51.482;-0.580;2024-02-26T11:22:30;100950.56;;;7.74
81657;BMP280;71067;51.482;-0.580;2024-02-26T11:25:11;100896.69;;;7.51
81657;BMP280;71067;51.482;-0.580;2024-02-26T11:27:45;100924.81;;;7.74
81657;BMP280;71067;51.482;-0.580;2024-02-26T11:30:13;100917.19;;;7.62
81657;BMP280;71067;51.482;-0.580;2024-02-26T11:32:46;100891.16;;;7.46
81657;BMP280;71067;51.482;-0.580;2024-02-26T11:35:12;100983.16;;;7.94
81657;BMP280;71067;51.482;-0.580;2024-02-26T11:37:42;100967.41;;;7.97
81657;BMP280;71067;51.482;-0.580;2024-02-26T11:40:17;100966.09;;;7.93
81657;BMP280;71067;51.482;-0.580;2024-02-26T11:42:44;100972.06;;;8.03
81657;BMP280;71067;51.482;-0.580;2024-02-26T11:48:04;100942.19;;;7.91
81657;BMP280;71067;51.482;-0.580;2024-02-26T11:50:34;100935.16;;;7.93
81657;BMP280;71067;51.482;-0.580;2024-02-26T11:53:24;100981.28;;;8.24
81657;BMP280;71067;51.482;-0.580;2024-02-26T12:02:43;101003.94;;;8.30
81657;BMP280;71067;51.482;-0.580;2024-02-26T12:05:32;100970.13;;;8.05
81657;BMP280;71067;51.482;-0.580;2024-02-26T12:08:01;100964.59;;;8.00
81657;BMP280;71067;51.482;-0.580;2024-02-26T12:10:35;100949.50;;;7.86
81657;BMP280;71067;51.482;-0.580;2024-02-26T12:13:11;101002.72;;;8.25
81657;BMP280;71067;51.482;-0.580;2024-02-26T12:15:43;100951.69;;;8.00
81657;BMP280;71067;51.482;-0.580;2024-02-26T12:18:28;100963.09;;;7.97
81657;BMP280;71067;51.482;-0.580;2024-02-26T12:21:02;101024.81;;;8.46
81657;BMP280;71067;51.482;-0.580;2024-02-26T12:23:29;100974.78;;;8.11
81657;BMP280;71067;51.482;-0.580;2024-02-26T12:26:01;100973.97;;;8.01
81657;BMP280;71067;51.482;-0.580;2024-02-26T12:28:49;101035.81;;;8.48
81657;BMP280;71067;51.482;-0.580;2024-02-26T12:31:14;101002.03;;;8.23
81657;BMP280;71067;51.482;-0.580;2024-02-26T12:33:40;100972.56;;;8.06
81657;BMP280;71067;51.482;-0.580;2024-02-26T12:36:06;101027.41;;;8.46
81657;BMP280;71067;51.482;-0.580;2024-02-26T12:38:33;101052.94;;;8.49
81657;BMP280;71067;51.482;-0.580;2024-02-26T12:41:01;100981.94;;;8.07
81657;BMP280;71067;51.482;-0.580;2024-02-26T12:43:27;101005.44;;;8.33
81657;BMP280;71067;51.482;-0.580;2024-02-26T12:45:53;101052.53;;;8.54
81657;BMP280;71067;51.482;-0.580;2024-02-26T12:48:19;101001.34;;;8.30
81657;BMP280;71067;51.482;-0.580;2024-02-26T12:50:46;101040.72;;;8.52
81657;BMP280;71067;51.482;-0.580;2024-02-26T12:53:14;101039.47;;;8.46
81657;BMP280;71067;51.482;-0.580;2024-02-26T12:55:40;101011.41;;;8.33
81657;BMP280;71067;51.482;-0.580;2024-02-26T12:58:07;101011.41;;;8.43
81657;BMP280;71067;51.482;-0.580;2024-02-26T13:00:33;101011.41;;;8.43
81657;BMP280;71067;51.482;-0.580;2024-02-26T13:02:59;101052.91;;;8.78
81657;BMP280;71067;51.482;-0.580;2024-02-26T13:05:25;101067.44;;;8.89
81657;BMP280;71067;51.482;-0.580;2024-02-26T13:07:51;101009.50;;;8.55
81657;BMP280;71067;51.482;-0.580;2024-02-26T13:10:18;101048.50;;;8.98
81657;BMP280;71067;51.482;-0.580;2024-02-26T13:12:47;101075.16;;;8.98
81657;BMP280;71067;51.482;-0.580;2024-02-26T13:15:17;101077.59;;;9.09
81657;BMP280;71067;51.482;-0.580;2024-02-26T13:17:43;101061.06;;;8.83
81657;BMP280;71067;51.482;-0.580;2024-02-26T13:20:09;101031.59;;;8.76
81657;BMP280;71067;51.482;-0.580;2024-02-26T13:22:37;101050.53;;;9.13
81657;BMP280;71067;51.482;-0.580;2024-02-26T13:25:03;101057.50;;;9.03
81657;BMP280;71067;51.482;-0.580;2024-02-26T13:27:29;101045.22;;;9.15
81657;BMP280;71067;51.482;-0.580;2024-02-26T13:30:03;101012.09;;;9.01
81657;BMP280;71067;51.482;-0.580;2024-02-26T13:32:32;101044.84;;;9.10
81657;BMP280;71067;51.482;-0.580;2024-02-26T13:35:24;101111.25;;;9.37
81657;BMP280;71067;51.482;-0.580;2024-02-26T13:37:51;101115.72;;;9.34
81657;BMP280;71067;51.482;-0.580;2024-02-26T13:40:17;101088.19;;;9.16
81657;BMP280;71067;51.482;-0.580;2024-02-26T13:42:45;101084.63;;;9.17
81657;BMP280;71067;51.482;-0.580;2024-02-26T13:45:10;101098.78;;;9.22
81657;BMP280;71067;51.482;-0.580;2024-02-26T13:47:39;101056.03;;;8.91
81657;BMP280;71067;51.482;-0.580;2024-02-26T13:50:06;101104.72;;;9.23
81657;BMP280;71067;51.482;-0.580;2024-02-26T13:52:32;101101.28;;;9.32
81657;BMP280;71067;51.482;-0.580;2024-02-26T13:55:10;101111.41;;;9.25
81657;BMP280;71067;51.482;-0.580;2024-02-26T13:57:36;101123.91;;;9.40
81657;BMP280;71067;51.482;-0.580;2024-02-26T14:00:05;101101.63;;;9.19
81657;BMP280;71067;51.482;-0.580;2024-02-26T14:02:31;101106.91;;;9.27
81657;BMP280;71067;51.482;-0.580;2024-02-26T14:04:57;101075.03;;;9.00
81657;BMP280;71067;51.482;-0.580;2024-02-26T14:07:23;101070.66;;;9.10
81657;BMP280;71067;51.482;-0.580;2024-02-26T14:09:57;101106.09;;;9.27
81657;BMP280;71067;51.482;-0.580;2024-02-26T14:12:23;101143.72;;;9.49
81657;BMP280;71067;51.482;-0.580;2024-02-26T14:14:48;101144.63;;;9.57
81657;BMP280;71067;51.482;-0.580;2024-02-26T14:17:14;101097.44;;;9.18